sensor_id;sensor_type;location;lat;lon;timestamp;P1;durP1;ratioP1;P2;durP2;ratioP2
16436;SDS011;8328;52.206;21.006;2023-03-03T00:02:25;95.22;;;46.42;;
16436;SDS011;8328;52.206;21.006;2023-03-03T00:04:51;91.13;;;46.43;;
16436;SDS011;8328;52.206;21.006;2023-03-03T00:07:17;86.60;;;42.73;;
16436;SDS011;8328;52.206;21.006;2023-03-03T00:09:47;95.25;;;46.05;;
16436;SDS011;8328;52.206;21.006;2023-03-03T00:12:19;99.03;;;51.15;;
16436;SDS011;8328;52.206;21.006;2023-03-03T00:14:49;90.07;;;43.35;;
16436;SDS011;8328;52.206;21.006;2023-03-03T00:17:20;91.93;;;46.83;;
16436;SDS011;8328;52.206;21.006;2023-03-03T00:19:48;87.43;;;43.55;;
16436;SDS011;8328;52.206;21.006;2023-03-03T00:25:00;101.20;;;47.75;;
16436;SDS011;8328;52.206;21.006;2023-03-03T00:27:48;83.20;;;40.70;;
16436;SDS011;8328;52.206;21.006;2023-03-03T00:30:24;86.00;;;46.07;;
16436;SDS011;8328;52.206;21.006;2023-03-03T00:32:51;86.97;;;42.22;;
16436;SDS011;8328;52.206;21.006;2023-03-03T00:35:23;82.82;;;42.45;;
16436;SDS011;8328;52.206;21.006;2023-03-03T00:37:58;90.97;;;45.42;;
16436;SDS011;8328;52.206;21.006;2023-03-03T00:40:35;85.97;;;41.55;;
16436;SDS011;8328;52.206;21.006;2023-03-03T00:50:54;74.68;;;35.95;;
16436;SDS011;8328;52.206;21.006;2023-03-03T00:53:22;74.20;;;36.40;;
16436;SDS011;8328;52.206;21.006;2023-03-03T00:55:50;78.93;;;38.22;;
16436;SDS011;8328;52.206;21.006;2023-03-03T00:58:17;77.85;;;34.90;;
16436;SDS011;8328;52.206;21.006;2023-03-03T01:00:45;75.90;;;35.47;;
16436;SDS011;8328;52.206;21.006;2023-03-03T01:03:14;69.78;;;35.72;;
16436;SDS011;8328;52.206;21.006;2023-03-03T01:05:43;74.55;;;37.30;;
16436;SDS011;8328;52.206;21.006;2023-03-03T01:08:09;64.28;;;33.78;;
16436;SDS011;8328;52.206;21.006;2023-03-03T01:10:37;63.70;;;32.03;;
16436;SDS011;8328;52.206;21.006;2023-03-03T01:13:06;62.83;;;32.38;;
16436;SDS011;8328;52.206;21.006;2023-03-03T01:15:33;63.63;;;32.47;;
16436;SDS011;8328;52.206;21.006;2023-03-03T01:17:59;62.90;;;31.95;;
16436;SDS011;8328;52.206;21.006;2023-03-03T01:20:25;58.57;;;28.67;;
16436;SDS011;8328;52.206;21.006;2023-03-03T01:22:50;56.07;;;29.27;;
16436;SDS011;8328;52.206;21.006;2023-03-03T01:25:16;51.60;;;25.27;;
16436;SDS011;8328;52.206;21.006;2023-03-03T01:27:42;52.83;;;27.83;;
16436;SDS011;8328;52.206;21.006;2023-03-03T01:30:08;59.47;;;30.27;;
16436;SDS011;8328;52.206;21.006;2023-03-03T01:32:34;60.45;;;30.02;;
16436;SDS011;8328;52.206;21.006;2023-03-03T01:35:00;60.83;;;30.03;;
16436;SDS011;8328;52.206;21.006;2023-03-03T01:37:25;58.43;;;29.53;;
16436;SDS011;8328;52.206;21.006;2023-03-03T01:39:52;54.97;;;28.73;;
16436;SDS011;8328;52.206;21.006;2023-03-03T01:42:18;55.58;;;28.55;;
16436;SDS011;8328;52.206;21.006;2023-03-03T01:44:45;56.85;;;29.25;;
16436;SDS011;8328;52.206;21.006;2023-03-03T01:47:26;55.47;;;28.55;;
16436;SDS011;8328;52.206;21.006;2023-03-03T01:50:04;60.47;;;29.55;;
16436;SDS011;8328;52.206;21.006;2023-03-03T01:52:37;56.65;;;29.05;;
16436;SDS011;8328;52.206;21.006;2023-03-03T01:55:14;56.42;;;29.15;;
16436;SDS011;8328;52.206;21.006;2023-03-03T01:57:48;56.55;;;28.38;;
16436;SDS011;8328;52.206;21.006;2023-03-03T02:00:22;55.63;;;30.20;;
16436;SDS011;8328;52.206;21.006;2023-03-03T02:02:48;59.95;;;31.15;;
16436;SDS011;8328;52.206;21.006;2023-03-03T02:05:15;54.83;;;29.27;;
16436;SDS011;8328;52.206;21.006;2023-03-03T02:07:41;58.17;;;30.30;;
16436;SDS011;8328;52.206;21.006;2023-03-03T02:10:09;56.03;;;30.73;;
16436;SDS011;8328;52.206;21.006;2023-03-03T02:12:41;58.55;;;30.73;;
16436;SDS011;8328;52.206;21.006;2023-03-03T02:17:43;60.03;;;29.88;;
16436;SDS011;8328;52.206;21.006;2023-03-03T02:20:31;57.75;;;31.33;;
16436;SDS011;8328;52.206;21.006;2023-03-03T02:25:52;57.65;;;31.25;;
16436;SDS011;8328;52.206;21.006;2023-03-03T02:28:23;57.55;;;29.35;;
16436;SDS011;8328;52.206;21.006;2023-03-03T02:30:53;59.00;;;30.48;;
16436;SDS011;8328;52.206;21.006;2023-03-03T02:33:20;63.58;;;30.48;;
16436;SDS011;8328;52.206;21.006;2023-03-03T02:35:46;54.20;;;28.42;;
16436;SDS011;8328;52.206;21.006;2023-03-03T02:38:26;62.20;;;30.80;;
16436;SDS011;8328;52.206;21.006;2023-03-03T02:43:56;58.83;;;31.30;;
16436;SDS011;8328;52.206;21.006;2023-03-03T02:46:19;58.35;;;30.15;;
16436;SDS011;8328;52.206;21.006;2023-03-03T02:48:45;55.40;;;29.13;;
16436;SDS011;8328;52.206;21.006;2023-03-03T02:51:11;55.17;;;27.57;;
16436;SDS011;8328;52.206;21.006;2023-03-03T02:53:37;63.07;;;29.47;;
16436;SDS011;8328;52.206;21.006;2023-03-03T02:56:03;59.33;;;31.57;;
16436;SDS011;8328;52.206;21.006;2023-03-03T02:58:29;62.53;;;32.08;;
16436;SDS011;8328;52.206;21.006;2023-03-03T03:00:55;59.28;;;30.52;;
16436;SDS011;8328;52.206;21.006;2023-03-03T03:03:21;58.27;;;27.73;;
16436;SDS011;8328;52.206;21.006;2023-03-03T03:05:47;59.58;;;31.10;;
16436;SDS011;8328;52.206;21.006;2023-03-03T03:08:13;59.13;;;30.87;;
16436;SDS011;8328;52.206;21.006;2023-03-03T03:10:39;59.15;;;30.35;;
16436;SDS011;8328;52.206;21.006;2023-03-03T03:13:05;58.30;;;29.37;;
16436;SDS011;8328;52.206;21.006;2023-03-03T03:15:30;61.77;;;31.53;;
16436;SDS011;8328;52.206;21.006;2023-03-03T03:17:56;62.70;;;30.17;;
16436;SDS011;8328;52.206;21.006;2023-03-03T03:20:22;62.33;;;31.60;;
16436;SDS011;8328;52.206;21.006;2023-03-03T03:22:48;58.83;;;30.93;;
16436;SDS011;8328;52.206;21.006;2023-03-03T03:25:14;60.28;;;31.73;;
16436;SDS011;8328;52.206;21.006;2023-03-03T03:27:40;56.77;;;27.87;;
16436;SDS011;8328;52.206;21.006;2023-03-03T03:30:06;61.30;;;30.33;;
16436;SDS011;8328;52.206;21.006;2023-03-03T03:32:32;65.68;;;30.67;;
16436;SDS011;8328;52.206;21.006;2023-03-03T03:34:58;66.33;;;31.40;;
16436;SDS011;8328;52.206;21.006;2023-03-03T03:37:24;67.43;;;33.07;;
16436;SDS011;8328;52.206;21.006;2023-03-03T03:39:49;61.40;;;31.20;;
16436;SDS011;8328;52.206;21.006;2023-03-03T03:42:17;65.70;;;32.83;;
16436;SDS011;8328;52.206;21.006;2023-03-03T03:44:43;60.23;;;30.53;;
16436;SDS011;8328;52.206;21.006;2023-03-03T03:47:09;62.30;;;30.33;;
16436;SDS011;8328;52.206;21.006;2023-03-03T03:49:35;68.13;;;33.50;;
16436;SDS011;8328;52.206;21.006;2023-03-03T03:52:01;66.20;;;32.30;;
16436;SDS011;8328;52.206;21.006;2023-03-03T03:54:27;62.33;;;30.30;;
16436;SDS011;8328;52.206;21.006;2023-03-03T03:56:52;63.75;;;31.38;;
16436;SDS011;8328;52.206;21.006;2023-03-03T03:59:19;66.28;;;31.25;;
16436;SDS011;8328;52.206;21.006;2023-03-03T04:01:45;65.35;;;31.80;;
16436;SDS011;8328;52.206;21.006;2023-03-03T04:04:12;65.90;;;30.40;;
16436;SDS011;8328;52.206;21.006;2023-03-03T04:06:38;65.20;;;31.67;;
16436;SDS011;8328;52.206;21.006;2023-03-03T04:09:04;66.30;;;33.00;;
16436;SDS011;8328;52.206;21.006;2023-03-03T04:11:30;64.40;;;31.70;;
16436;SDS011;8328;52.206;21.006;2023-03-03T04:13:55;65.57;;;30.37;;
16436;SDS011;8328;52.206;21.006;2023-03-03T04:16:22;58.35;;;29.75;;
16436;SDS011;8328;52.206;21.006;2023-03-03T04:18:48;64.83;;;31.77;;
16436;SDS011;8328;52.206;21.006;2023-03-03T04:21:14;63.37;;;30.60;;
16436;SDS011;8328;52.206;21.006;2023-03-03T04:23:40;57.50;;;29.67;;
16436;SDS011;8328;52.206;21.006;2023-03-03T04:26:06;59.57;;;28.53;;
16436;SDS011;8328;52.206;21.006;2023-03-03T04:28:33;68.15;;;33.22;;
16436;SDS011;8328;52.206;21.006;2023-03-03T04:30:59;70.53;;;32.60;;
16436;SDS011;8328;52.206;21.006;2023-03-03T04:33:24;66.07;;;31.73;;
16436;SDS011;8328;52.206;21.006;2023-03-03T04:35:50;67.72;;;32.03;;
16436;SDS011;8328;52.206;21.006;2023-03-03T04:38:16;64.72;;;28.35;;
16436;SDS011;8328;52.206;21.006;2023-03-03T04:40:42;64.87;;;32.13;;
16436;SDS011;8328;52.206;21.006;2023-03-03T04:43:09;62.87;;;30.07;;
16436;SDS011;8328;52.206;21.006;2023-03-03T04:45:35;58.95;;;28.77;;
16436;SDS011;8328;52.206;21.006;2023-03-03T04:48:01;44.30;;;20.25;;
16436;SDS011;8328;52.206;21.006;2023-03-03T04:50:27;76.00;;;32.83;;
16436;SDS011;8328;52.206;21.006;2023-03-03T04:52:53;61.93;;;28.57;;
16436;SDS011;8328;52.206;21.006;2023-03-03T04:55:19;68.07;;;31.43;;
16436;SDS011;8328;52.206;21.006;2023-03-03T04:57:44;65.37;;;30.23;;
16436;SDS011;8328;52.206;21.006;2023-03-03T05:00:11;68.13;;;32.03;;
16436;SDS011;8328;52.206;21.006;2023-03-03T05:02:40;70.57;;;30.95;;
16436;SDS011;8328;52.206;21.006;2023-03-03T05:05:06;63.75;;;30.70;;
16436;SDS011;8328;52.206;21.006;2023-03-03T05:07:34;62.60;;;28.92;;
16436;SDS011;8328;52.206;21.006;2023-03-03T05:10:00;72.30;;;33.20;;
16436;SDS011;8328;52.206;21.006;2023-03-03T05:12:26;69.57;;;33.33;;
16436;SDS011;8328;52.206;21.006;2023-03-03T05:14:52;68.57;;;32.45;;
16436;SDS011;8328;52.206;21.006;2023-03-03T05:17:18;69.03;;;33.50;;
16436;SDS011;8328;52.206;21.006;2023-03-03T05:19:44;52.70;;;23.67;;
16436;SDS011;8328;52.206;21.006;2023-03-03T05:22:09;76.83;;;36.53;;
16436;SDS011;8328;52.206;21.006;2023-03-03T05:24:37;70.85;;;35.17;;
16436;SDS011;8328;52.206;21.006;2023-03-03T05:27:03;75.30;;;33.87;;
16436;SDS011;8328;52.206;21.006;2023-03-03T05:29:29;65.47;;;31.13;;
16436;SDS011;8328;52.206;21.006;2023-03-03T05:31:56;70.88;;;35.45;;
16436;SDS011;8328;52.206;21.006;2023-03-03T05:34:22;61.20;;;25.98;;
16436;SDS011;8328;52.206;21.006;2023-03-03T05:36:48;75.00;;;35.28;;
16436;SDS011;8328;52.206;21.006;2023-03-03T05:39:15;70.07;;;33.38;;
16436;SDS011;8328;52.206;21.006;2023-03-03T05:41:40;76.50;;;32.63;;
16436;SDS011;8328;52.206;21.006;2023-03-03T05:44:07;68.00;;;32.67;;
16436;SDS011;8328;52.206;21.006;2023-03-03T05:46:32;80.90;;;36.70;;
16436;SDS011;8328;52.206;21.006;2023-03-03T05:48:58;52.67;;;23.03;;
16436;SDS011;8328;52.206;21.006;2023-03-03T05:51:24;75.90;;;35.67;;
16436;SDS011;8328;52.206;21.006;2023-03-03T05:53:50;73.90;;;33.47;;
16436;SDS011;8328;52.206;21.006;2023-03-03T05:56:16;71.13;;;30.53;;
16436;SDS011;8328;52.206;21.006;2023-03-03T05:58:43;88.07;;;38.25;;
16436;SDS011;8328;52.206;21.006;2023-03-03T06:01:08;86.60;;;38.93;;
16436;SDS011;8328;52.206;21.006;2023-03-03T06:03:35;69.90;;;29.23;;
16436;SDS011;8328;52.206;21.006;2023-03-03T06:06:01;92.43;;;39.53;;
16436;SDS011;8328;52.206;21.006;2023-03-03T06:08:27;88.07;;;38.35;;
16436;SDS011;8328;52.206;21.006;2023-03-03T06:10:54;79.07;;;32.03;;
16436;SDS011;8328;52.206;21.006;2023-03-03T06:13:20;56.07;;;23.07;;
16436;SDS011;8328;52.206;21.006;2023-03-03T06:15:46;87.03;;;38.80;;
16436;SDS011;8328;52.206;21.006;2023-03-03T06:18:11;96.33;;;41.70;;
16436;SDS011;8328;52.206;21.006;2023-03-03T06:20:37;87.83;;;41.30;;
16436;SDS011;8328;52.206;21.006;2023-03-03T06:23:04;83.70;;;35.73;;
16436;SDS011;8328;52.206;21.006;2023-03-03T06:25:30;78.68;;;29.95;;
16436;SDS011;8328;52.206;21.006;2023-03-03T06:27:59;76.68;;;35.88;;
16436;SDS011;8328;52.206;21.006;2023-03-03T06:30:25;68.93;;;29.08;;
16436;SDS011;8328;52.206;21.006;2023-03-03T06:32:52;72.85;;;31.15;;
16436;SDS011;8328;52.206;21.006;2023-03-03T06:35:19;51.65;;;21.85;;
16436;SDS011;8328;52.206;21.006;2023-03-03T06:37:45;68.75;;;30.55;;
16436;SDS011;8328;52.206;21.006;2023-03-03T06:40:11;46.23;;;21.83;;
16436;SDS011;8328;52.206;21.006;2023-03-03T06:42:39;56.03;;;23.10;;
16436;SDS011;8328;52.206;21.006;2023-03-03T06:45:05;49.43;;;20.80;;
16436;SDS011;8328;52.206;21.006;2023-03-03T06:47:31;70.47;;;27.98;;
16436;SDS011;8328;52.206;21.006;2023-03-03T06:49:57;75.32;;;32.10;;
16436;SDS011;8328;52.206;21.006;2023-03-03T06:52:24;70.90;;;32.17;;
16436;SDS011;8328;52.206;21.006;2023-03-03T06:54:55;67.50;;;32.22;;
16436;SDS011;8328;52.206;21.006;2023-03-03T06:59:57;75.30;;;32.33;;
16436;SDS011;8328;52.206;21.006;2023-03-03T07:02:40;74.22;;;34.28;;
16436;SDS011;8328;52.206;21.006;2023-03-03T07:05:11;58.45;;;25.58;;
16436;SDS011;8328;52.206;21.006;2023-03-03T07:07:40;58.95;;;28.48;;
16436;SDS011;8328;52.206;21.006;2023-03-03T07:10:10;59.63;;;28.03;;
16436;SDS011;8328;52.206;21.006;2023-03-03T07:12:45;63.70;;;26.35;;
16436;SDS011;8328;52.206;21.006;2023-03-03T07:15:12;63.97;;;26.65;;
16436;SDS011;8328;52.206;21.006;2023-03-03T07:17:47;55.60;;;27.58;;
16436;SDS011;8328;52.206;21.006;2023-03-03T07:20:19;61.83;;;28.73;;
16436;SDS011;8328;52.206;21.006;2023-03-03T07:22:47;55.42;;;26.08;;
16436;SDS011;8328;52.206;21.006;2023-03-03T07:25:18;62.28;;;26.60;;
16436;SDS011;8328;52.206;21.006;2023-03-03T07:27:48;37.75;;;16.88;;
16436;SDS011;8328;52.206;21.006;2023-03-03T07:32:46;60.10;;;26.92;;
16436;SDS011;8328;52.206;21.006;2023-03-03T07:40:53;55.63;;;23.15;;
16436;SDS011;8328;52.206;21.006;2023-03-03T07:43:37;51.30;;;20.58;;
16436;SDS011;8328;52.206;21.006;2023-03-03T07:48:45;49.50;;;18.48;;
16436;SDS011;8328;52.206;21.006;2023-03-03T07:56:42;39.10;;;15.25;;
16436;SDS011;8328;52.206;21.006;2023-03-03T07:59:20;58.67;;;25.43;;
16436;SDS011;8328;52.206;21.006;2023-03-03T08:01:53;54.20;;;24.05;;
16436;SDS011;8328;52.206;21.006;2023-03-03T08:04:23;50.17;;;23.92;;
16436;SDS011;8328;52.206;21.006;2023-03-03T08:06:57;49.25;;;23.60;;
16436;SDS011;8328;52.206;21.006;2023-03-03T08:14:34;54.67;;;24.30;;
16436;SDS011;8328;52.206;21.006;2023-03-03T08:17:23;48.75;;;21.98;;
16436;SDS011;8328;52.206;21.006;2023-03-03T08:19:50;44.38;;;22.25;;
16436;SDS011;8328;52.206;21.006;2023-03-03T08:24:50;34.55;;;15.98;;
16436;SDS011;8328;52.206;21.006;2023-03-03T08:27:16;34.07;;;14.63;;
16436;SDS011;8328;52.206;21.006;2023-03-03T08:29:41;50.87;;;22.70;;
16436;SDS011;8328;52.206;21.006;2023-03-03T08:32:07;35.90;;;15.97;;
16436;SDS011;8328;52.206;21.006;2023-03-03T08:34:33;37.67;;;16.90;;
16436;SDS011;8328;52.206;21.006;2023-03-03T08:36:58;42.17;;;16.87;;
16436;SDS011;8328;52.206;21.006;2023-03-03T08:39:24;45.13;;;19.53;;
16436;SDS011;8328;52.206;21.006;2023-03-03T08:41:50;42.38;;;18.13;;
16436;SDS011;8328;52.206;21.006;2023-03-03T08:44:16;39.00;;;17.33;;
16436;SDS011;8328;52.206;21.006;2023-03-03T08:46:43;54.10;;;22.45;;
16436;SDS011;8328;52.206;21.006;2023-03-03T08:49:09;42.57;;;16.77;;
16436;SDS011;8328;52.206;21.006;2023-03-03T08:51:35;53.57;;;20.40;;
16436;SDS011;8328;52.206;21.006;2023-03-03T08:54:00;46.03;;;21.20;;
16436;SDS011;8328;52.206;21.006;2023-03-03T08:56:26;43.23;;;19.43;;
16436;SDS011;8328;52.206;21.006;2023-03-03T08:58:52;45.67;;;21.13;;
16436;SDS011;8328;52.206;21.006;2023-03-03T09:01:18;44.35;;;19.58;;
16436;SDS011;8328;52.206;21.006;2023-03-03T09:03:44;44.13;;;21.03;;
16436;SDS011;8328;52.206;21.006;2023-03-03T09:06:12;31.35;;;13.82;;
16436;SDS011;8328;52.206;21.006;2023-03-03T09:08:37;50.40;;;20.87;;
16436;SDS011;8328;52.206;21.006;2023-03-03T09:11:14;45.97;;;21.30;;
16436;SDS011;8328;52.206;21.006;2023-03-03T09:13:48;48.53;;;21.17;;
16436;SDS011;8328;52.206;21.006;2023-03-03T09:16:17;45.80;;;21.95;;
16436;SDS011;8328;52.206;21.006;2023-03-03T09:18:45;48.53;;;23.17;;
16436;SDS011;8328;52.206;21.006;2023-03-03T09:21:21;27.30;;;11.93;;
16436;SDS011;8328;52.206;21.006;2023-03-03T09:23:56;46.85;;;21.42;;
16436;SDS011;8328;52.206;21.006;2023-03-03T09:26:44;36.95;;;16.40;;
16436;SDS011;8328;52.206;21.006;2023-03-03T09:31:52;48.83;;;22.15;;
16436;SDS011;8328;52.206;21.006;2023-03-03T09:37:25;45.28;;;23.20;;
16436;SDS011;8328;52.206;21.006;2023-03-03T09:39:51;53.77;;;23.70;;
16436;SDS011;8328;52.206;21.006;2023-03-03T09:54:07;46.57;;;20.63;;
16436;SDS011;8328;52.206;21.006;2023-03-03T09:56:43;43.15;;;20.38;;
16436;SDS011;8328;52.206;21.006;2023-03-03T10:07:48;41.50;;;19.10;;
16436;SDS011;8328;52.206;21.006;2023-03-03T10:11:07;44.40;;;20.30;;
16436;SDS011;8328;52.206;21.006;2023-03-03T10:13:41;43.25;;;20.92;;
16436;SDS011;8328;52.206;21.006;2023-03-03T10:22:52;42.35;;;17.52;;
16436;SDS011;8328;52.206;21.006;2023-03-03T10:25:37;38.17;;;16.00;;
16436;SDS011;8328;52.206;21.006;2023-03-03T10:28:15;26.48;;;11.93;;
16436;SDS011;8328;52.206;21.006;2023-03-03T10:47:35;39.42;;;18.25;;
16436;SDS011;8328;52.206;21.006;2023-03-03T10:58:02;35.45;;;17.35;;
16436;SDS011;8328;52.206;21.006;2023-03-03T11:00:52;23.33;;;10.68;;
16436;SDS011;8328;52.206;21.006;2023-03-03T11:08:55;35.17;;;17.38;;
16436;SDS011;8328;52.206;21.006;2023-03-03T11:14:30;31.42;;;16.23;;
16436;SDS011;8328;52.206;21.006;2023-03-03T11:23:03;27.08;;;13.55;;
16436;SDS011;8328;52.206;21.006;2023-03-03T11:31:43;19.65;;;7.60;;
16436;SDS011;8328;52.206;21.006;2023-03-03T11:37:11;19.73;;;8.45;;
16436;SDS011;8328;52.206;21.006;2023-03-03T11:39:51;28.73;;;14.35;;
16436;SDS011;8328;52.206;21.006;2023-03-03T11:45:02;24.38;;;12.77;;
16436;SDS011;8328;52.206;21.006;2023-03-03T11:47:41;30.80;;;15.48;;
16436;SDS011;8328;52.206;21.006;2023-03-03T11:50:18;29.42;;;14.35;;
16436;SDS011;8328;52.206;21.006;2023-03-03T11:55:37;30.43;;;15.33;;
16436;SDS011;8328;52.206;21.006;2023-03-03T12:03:28;33.17;;;17.13;;
16436;SDS011;8328;52.206;21.006;2023-03-03T12:06:05;32.05;;;15.88;;
16436;SDS011;8328;52.206;21.006;2023-03-03T12:20:02;25.98;;;14.57;;
16436;SDS011;8328;52.206;21.006;2023-03-03T12:22:41;35.03;;;16.70;;
16436;SDS011;8328;52.206;21.006;2023-03-03T12:39:15;29.30;;;13.40;;
16436;SDS011;8328;52.206;21.006;2023-03-03T12:41:52;32.20;;;14.55;;
16436;SDS011;8328;52.206;21.006;2023-03-03T12:47:40;28.50;;;15.57;;
16436;SDS011;8328;52.206;21.006;2023-03-03T12:55:48;19.60;;;10.25;;
16436;SDS011;8328;52.206;21.006;2023-03-03T13:01:25;30.83;;;13.70;;
16436;SDS011;8328;52.206;21.006;2023-03-03T13:04:30;29.45;;;13.93;;
16436;SDS011;8328;52.206;21.006;2023-03-03T13:13:06;27.08;;;14.25;;
16436;SDS011;8328;52.206;21.006;2023-03-03T13:18:30;27.27;;;14.40;;
16436;SDS011;8328;52.206;21.006;2023-03-03T13:21:00;28.05;;;13.57;;
16436;SDS011;8328;52.206;21.006;2023-03-03T13:26:32;27.63;;;12.63;;
16436;SDS011;8328;52.206;21.006;2023-03-03T13:29:18;27.27;;;12.75;;
16436;SDS011;8328;52.206;21.006;2023-03-03T13:31:51;24.25;;;11.35;;
16436;SDS011;8328;52.206;21.006;2023-03-03T13:37:03;28.50;;;14.20;;
16436;SDS011;8328;52.206;21.006;2023-03-03T13:39:39;29.98;;;15.25;;
16436;SDS011;8328;52.206;21.006;2023-03-03T13:42:21;27.17;;;13.65;;
16436;SDS011;8328;52.206;21.006;2023-03-03T13:45:22;29.67;;;13.63;;
16436;SDS011;8328;52.206;21.006;2023-03-03T13:50:44;22.58;;;10.77;;
16436;SDS011;8328;52.206;21.006;2023-03-03T14:04:30;27.88;;;13.30;;
16436;SDS011;8328;52.206;21.006;2023-03-03T14:06:54;28.58;;;13.27;;
16436;SDS011;8328;52.206;21.006;2023-03-03T14:09:34;21.75;;;10.57;;
16436;SDS011;8328;52.206;21.006;2023-03-03T14:20:58;25.67;;;12.57;;
16436;SDS011;8328;52.206;21.006;2023-03-03T14:23:33;25.60;;;11.50;;
16436;SDS011;8328;52.206;21.006;2023-03-03T14:26:14;23.10;;;10.52;;
16436;SDS011;8328;52.206;21.006;2023-03-03T14:28:41;28.83;;;14.55;;
16436;SDS011;8328;52.206;21.006;2023-03-03T14:31:22;29.40;;;14.60;;
16436;SDS011;8328;52.206;21.006;2023-03-03T14:36:46;31.90;;;14.45;;
16436;SDS011;8328;52.206;21.006;2023-03-03T14:39:33;32.03;;;15.25;;
16436;SDS011;8328;52.206;21.006;2023-03-03T14:42:13;27.90;;;13.95;;
16436;SDS011;8328;52.206;21.006;2023-03-03T14:44:54;30.90;;;13.52;;
16436;SDS011;8328;52.206;21.006;2023-03-03T14:47:26;26.35;;;13.18;;
16436;SDS011;8328;52.206;21.006;2023-03-03T14:49:54;34.22;;;15.20;;
16436;SDS011;8328;52.206;21.006;2023-03-03T14:52:25;31.80;;;13.38;;
16436;SDS011;8328;52.206;21.006;2023-03-03T14:54:54;29.05;;;13.60;;
16436;SDS011;8328;52.206;21.006;2023-03-03T14:57:38;25.05;;;12.80;;
16436;SDS011;8328;52.206;21.006;2023-03-03T15:05:33;28.83;;;13.32;;
16436;SDS011;8328;52.206;21.006;2023-03-03T15:10:35;26.75;;;13.45;;
16436;SDS011;8328;52.206;21.006;2023-03-03T15:13:39;27.15;;;13.93;;
16436;SDS011;8328;52.206;21.006;2023-03-03T15:21:53;23.35;;;10.32;;
16436;SDS011;8328;52.206;21.006;2023-03-03T15:32:27;26.15;;;13.35;;
16436;SDS011;8328;52.206;21.006;2023-03-03T15:38:16;22.55;;;9.55;;
16436;SDS011;8328;52.206;21.006;2023-03-03T15:40:59;17.55;;;8.50;;
16436;SDS011;8328;52.206;21.006;2023-03-03T15:43:35;21.20;;;9.73;;
16436;SDS011;8328;52.206;21.006;2023-03-03T15:54:35;17.88;;;8.27;;
16436;SDS011;8328;52.206;21.006;2023-03-03T15:57:29;22.67;;;10.73;;
16436;SDS011;8328;52.206;21.006;2023-03-03T16:03:07;30.77;;;13.10;;
16436;SDS011;8328;52.206;21.006;2023-03-03T16:06:07;30.80;;;14.38;;
16436;SDS011;8328;52.206;21.006;2023-03-03T16:16:44;34.05;;;15.85;;
16436;SDS011;8328;52.206;21.006;2023-03-03T16:20:34;30.33;;;15.40;;
16436;SDS011;8328;52.206;21.006;2023-03-03T16:28:45;21.15;;;9.35;;
16436;SDS011;8328;52.206;21.006;2023-03-03T16:31:22;28.70;;;13.40;;
16436;SDS011;8328;52.206;21.006;2023-03-03T16:33:57;23.60;;;12.25;;
16436;SDS011;8328;52.206;21.006;2023-03-03T16:36:36;28.27;;;13.48;;
16436;SDS011;8328;52.206;21.006;2023-03-03T16:42:28;36.03;;;15.20;;
16436;SDS011;8328;52.206;21.006;2023-03-03T16:58:34;32.50;;;17.75;;
16436;SDS011;8328;52.206;21.006;2023-03-03T17:20:45;23.08;;;10.50;;
16436;SDS011;8328;52.206;21.006;2023-03-03T17:29:05;15.88;;;8.57;;
16436;SDS011;8328;52.206;21.006;2023-03-03T17:32:12;27.75;;;14.07;;
16436;SDS011;8328;52.206;21.006;2023-03-03T17:38:41;22.20;;;11.48;;
16436;SDS011;8328;52.206;21.006;2023-03-03T17:40:50;23.73;;;13.88;;
16436;SDS011;8328;52.206;21.006;2023-03-03T17:46:15;24.77;;;12.48;;
16436;SDS011;8328;52.206;21.006;2023-03-03T17:51:57;25.80;;;12.18;;
16436;SDS011;8328;52.206;21.006;2023-03-03T17:54:32;27.42;;;14.13;;
16436;SDS011;8328;52.206;21.006;2023-03-03T18:22:41;33.75;;;15.40;;
16436;SDS011;8328;52.206;21.006;2023-03-03T18:25:13;26.05;;;13.70;;
16436;SDS011;8328;52.206;21.006;2023-03-03T18:27:42;33.83;;;17.05;;
16436;SDS011;8328;52.206;21.006;2023-03-03T18:30:24;34.83;;;16.25;;
16436;SDS011;8328;52.206;21.006;2023-03-03T18:46:08;36.35;;;17.73;;
16436;SDS011;8328;52.206;21.006;2023-03-03T18:48:56;23.73;;;11.75;;
16436;SDS011;8328;52.206;21.006;2023-03-03T18:53:59;36.90;;;20.25;;
16436;SDS011;8328;52.206;21.006;2023-03-03T18:56:42;34.40;;;17.25;;
16436;SDS011;8328;52.206;21.006;2023-03-03T19:04:42;35.95;;;19.50;;
16436;SDS011;8328;52.206;21.006;2023-03-03T19:07:17;32.42;;;15.40;;
16436;SDS011;8328;52.206;21.006;2023-03-03T19:10:00;33.10;;;17.15;;
16436;SDS011;8328;52.206;21.006;2023-03-03T19:23:22;34.33;;;18.13;;
16436;SDS011;8328;52.206;21.006;2023-03-03T19:51:28;29.83;;;14.35;;
16436;SDS011;8328;52.206;21.006;2023-03-03T19:56:54;34.63;;;15.27;;
16436;SDS011;8328;52.206;21.006;2023-03-03T20:15:37;29.02;;;13.30;;
16436;SDS011;8328;52.206;21.006;2023-03-03T20:26:56;21.05;;;9.82;;
16436;SDS011;8328;52.206;21.006;2023-03-03T20:29:39;39.40;;;20.05;;
16436;SDS011;8328;52.206;21.006;2023-03-03T20:41:05;31.02;;;11.02;;
16436;SDS011;8328;52.206;21.006;2023-03-03T20:43:41;31.60;;;15.93;;
16436;SDS011;8328;52.206;21.006;2023-03-03T20:55:18;35.78;;;17.20;;
16436;SDS011;8328;52.206;21.006;2023-03-03T21:00:53;32.08;;;14.38;;
16436;SDS011;8328;52.206;21.006;2023-03-03T21:03:33;37.75;;;17.73;;
16436;SDS011;8328;52.206;21.006;2023-03-03T21:06:10;32.08;;;14.75;;
16436;SDS011;8328;52.206;21.006;2023-03-03T21:08:51;30.40;;;14.98;;
16436;SDS011;8328;52.206;21.006;2023-03-03T21:13:57;25.52;;;11.60;;
16436;SDS011;8328;52.206;21.006;2023-03-03T21:21:38;34.22;;;17.88;;
16436;SDS011;8328;52.206;21.006;2023-03-03T21:24:06;26.30;;;12.68;;
16436;SDS011;8328;52.206;21.006;2023-03-03T21:29:35;28.13;;;11.77;;
16436;SDS011;8328;52.206;21.006;2023-03-03T21:32:02;39.10;;;19.52;;
16436;SDS011;8328;52.206;21.006;2023-03-03T21:37:04;34.25;;;17.92;;
16436;SDS011;8328;52.206;21.006;2023-03-03T21:42:17;41.83;;;19.10;;
16436;SDS011;8328;52.206;21.006;2023-03-03T21:47:22;38.30;;;20.38;;
16436;SDS011;8328;52.206;21.006;2023-03-03T21:49:54;41.47;;;20.88;;
16436;SDS011;8328;52.206;21.006;2023-03-03T21:52:20;29.25;;;14.73;;
16436;SDS011;8328;52.206;21.006;2023-03-03T21:54:47;38.42;;;19.77;;
16436;SDS011;8328;52.206;21.006;2023-03-03T21:57:15;51.05;;;23.73;;
16436;SDS011;8328;52.206;21.006;2023-03-03T21:59:41;31.63;;;15.68;;
16436;SDS011;8328;52.206;21.006;2023-03-03T22:02:08;44.33;;;22.57;;
16436;SDS011;8328;52.206;21.006;2023-03-03T22:04:35;40.83;;;19.08;;
16436;SDS011;8328;52.206;21.006;2023-03-03T22:07:05;45.85;;;20.77;;
16436;SDS011;8328;52.206;21.006;2023-03-03T22:09:31;38.63;;;20.45;;
16436;SDS011;8328;52.206;21.006;2023-03-03T22:11:57;35.33;;;15.38;;
16436;SDS011;8328;52.206;21.006;2023-03-03T22:14:23;33.03;;;14.70;;
16436;SDS011;8328;52.206;21.006;2023-03-03T22:16:50;37.97;;;18.95;;
16436;SDS011;8328;52.206;21.006;2023-03-03T22:19:15;45.63;;;20.00;;
16436;SDS011;8328;52.206;21.006;2023-03-03T22:21:41;40.73;;;17.50;;
16436;SDS011;8328;52.206;21.006;2023-03-03T22:24:07;28.73;;;13.90;;
16436;SDS011;8328;52.206;21.006;2023-03-03T22:26:33;32.47;;;14.75;;
16436;SDS011;8328;52.206;21.006;2023-03-03T22:29:00;40.92;;;20.15;;
16436;SDS011;8328;52.206;21.006;2023-03-03T22:31:26;42.50;;;19.48;;